createdAt,value
2017-12-05T00:00:10.168Z,4.78
2017-12-05T00:01:10.656Z,4.93
2017-12-05T00:02:10.087Z,4.77
2017-12-05T00:03:10.046Z,4.82
2017-12-05T00:04:10.012Z,4.86
2017-12-05T00:05:09.959Z,4.90
2017-12-05T00:06:09.922Z,4.86
2017-12-05T00:07:09.878Z,4.86
2017-12-05T00:08:09.841Z,4.89
2017-12-05T00:09:09.806Z,4.86
2017-12-05T00:10:09.753Z,4.89
2017-12-05T00:11:09.721Z,4.90
2017-12-05T00:12:09.669Z,4.86
2017-12-05T00:13:09.627Z,4.87
2017-12-05T00:14:09.594Z,5.00
2017-12-05T00:15:09.548Z,4.86
2017-12-05T00:16:09.507Z,4.90
2017-12-05T00:17:09.463Z,4.82
2017-12-05T00:18:09.423Z,4.89
2017-12-05T00:19:09.398Z,4.80
2017-12-05T00:20:09.350Z,4.80
2017-12-05T00:21:09.297Z,4.80
2017-12-05T00:22:09.256Z,4.87
2017-12-05T00:23:09.217Z,4.90
2017-12-05T00:24:09.181Z,4.90
2017-12-05T00:25:09.133Z,4.78
2017-12-05T00:26:09.097Z,4.87
2017-12-05T00:27:09.052Z,4.82
2017-12-05T00:28:09.011Z,4.89
2017-12-05T00:29:08.968Z,4.90
2017-12-05T00:30:08.927Z,4.89
2017-12-05T00:31:08.882Z,4.89
2017-12-05T00:32:08.858Z,4.90
2017-12-05T00:33:08.807Z,4.86
2017-12-05T00:34:08.766Z,4.86
2017-12-05T00:35:08.734Z,4.89
2017-12-05T00:36:08.711Z,4.86
2017-12-05T00:37:08.635Z,4.82
2017-12-05T00:38:08.597Z,4.87
2017-12-05T00:39:08.557Z,4.87
2017-12-05T00:40:08.514Z,4.89
2017-12-05T00:41:08.470Z,4.84
2017-12-05T00:42:08.435Z,4.90
2017-12-05T00:43:08.389Z,4.87
2017-12-05T00:44:08.345Z,4.86
2017-12-05T00:45:08.304Z,4.90
2017-12-05T00:46:08.263Z,4.87
2017-12-05T00:47:08.242Z,4.90
2017-12-05T00:48:08.192Z,4.87
2017-12-05T00:49:08.138Z,4.94
2017-12-05T00:50:08.099Z,4.87
2017-12-05T00:51:08.058Z,4.96
2017-12-05T00:52:08.015Z,4.87
2017-12-05T00:53:07.973Z,4.89
2017-12-05T00:54:07.930Z,4.87
2017-12-05T00:55:07.890Z,4.84
2017-12-05T00:56:07.850Z,4.90
2017-12-05T00:57:07.812Z,5.00
2017-12-05T00:58:07.770Z,4.94
2017-12-05T00:59:07.733Z,4.87
2017-12-05T01:00:07.684Z,4.97
2017-12-05T01:01:07.647Z,4.90
2017-12-05T01:02:07.603Z,5.04
2017-12-05T01:03:07.561Z,4.93
2017-12-05T01:04:07.564Z,4.99
2017-12-05T01:05:07.477Z,4.93
2017-12-05T01:06:07.436Z,5.04
2017-12-05T01:07:07.400Z,4.97
2017-12-05T01:08:07.354Z,5.07
2017-12-05T01:09:07.326Z,5.05
2017-12-05T01:10:07.274Z,5.11
2017-12-05T01:11:07.228Z,5.12
2017-12-05T01:12:07.187Z,5.18
2017-12-05T01:13:07.148Z,5.11
2017-12-05T01:14:07.105Z,5.23
2017-12-05T01:15:07.061Z,5.25
2017-12-05T01:16:07.031Z,5.20
2017-12-05T01:17:06.980Z,5.20
2017-12-05T01:18:06.943Z,5.23
2017-12-05T01:19:06.898Z,5.25
2017-12-05T01:20:06.864Z,5.12
2017-12-05T01:21:06.818Z,5.26
2017-12-05T01:22:06.773Z,5.21
2017-12-05T01:23:06.732Z,5.25
2017-12-05T01:24:06.719Z,5.25
2017-12-05T01:25:06.657Z,5.29
2017-12-05T01:26:06.617Z,5.21
2017-12-05T01:27:06.567Z,5.25
2017-12-05T01:28:06.524Z,5.28
2017-12-05T01:29:06.497Z,5.29
2017-12-05T01:30:06.446Z,5.33
2017-12-05T01:31:06.402Z,5.33
2017-12-05T01:32:06.365Z,5.35
2017-12-05T01:33:06.329Z,5.41
2017-12-05T01:34:06.287Z,5.41
2017-12-05T01:35:09.064Z,5.41
2017-12-05T01:36:06.202Z,5.39
2017-12-05T01:37:06.157Z,5.47
2017-12-05T01:38:06.116Z,5.47
2017-12-05T01:39:06.074Z,5.51
2017-12-05T01:40:06.030Z,5.43
2017-12-05T01:41:06.007Z,5.41
2017-12-05T01:42:05.945Z,5.47
2017-12-05T01:43:05.908Z,5.47
2017-12-05T01:44:05.865Z,5.50
2017-12-05T01:45:05.825Z,5.46
2017-12-05T01:46:05.784Z,5.46
2017-12-05T01:47:05.749Z,5.41
2017-12-05T01:48:07.562Z,5.46
2017-12-05T01:49:05.659Z,5.48
2017-12-05T01:50:05.616Z,5.48
2017-12-05T01:51:05.576Z,5.44
2017-12-05T01:52:05.538Z,5.39
2017-12-05T01:53:05.494Z,5.46
2017-12-05T01:54:05.455Z,5.56
2017-12-05T01:55:05.413Z,5.47
2017-12-05T01:56:05.371Z,5.59
2017-12-05T01:57:05.328Z,5.54
2017-12-05T01:58:05.287Z,5.56
2017-12-05T01:59:05.245Z,5.56
2017-12-05T02:00:05.214Z,5.61
2017-12-05T02:01:05.164Z,5.61
2017-12-05T02:02:05.145Z,5.59
2017-12-05T02:03:05.104Z,5.56
2017-12-05T02:04:05.044Z,5.54
2017-12-05T02:05:05.001Z,5.57
2017-12-05T02:06:04.961Z,5.62
2017-12-05T02:07:04.926Z,5.56
2017-12-05T02:08:04.887Z,5.57
2017-12-05T02:09:04.838Z,5.71
2017-12-05T02:10:04.798Z,5.69
2017-12-05T02:11:04.755Z,5.59
2017-12-05T02:12:04.723Z,5.69
2017-12-05T02:13:04.672Z,5.69
2017-12-05T02:14:04.628Z,5.68
2017-12-05T02:15:04.599Z,5.71
2017-12-05T02:16:04.558Z,5.71
2017-12-05T02:17:04.515Z,5.71
2017-12-05T02:18:04.465Z,5.71
2017-12-05T02:19:04.432Z,5.83
2017-12-05T02:20:04.383Z,5.68
2017-12-05T02:21:04.343Z,5.73
2017-12-05T02:22:04.305Z,5.72
2017-12-05T02:23:19.105Z,5.69
2017-12-05T02:24:04.223Z,5.68
2017-12-05T02:25:04.185Z,5.71
2017-12-05T02:26:04.145Z,5.79
2017-12-05T02:27:04.101Z,5.76
2017-12-05T02:28:04.064Z,5.73
2017-12-05T02:29:04.011Z,5.72
2017-12-05T02:30:03.975Z,5.82
2017-12-05T02:31:03.931Z,5.82
2017-12-05T02:32:03.894Z,5.76
2017-12-05T02:33:03.851Z,5.73
2017-12-05T02:34:03.810Z,5.72
2017-12-05T02:35:03.771Z,5.72
2017-12-05T02:36:03.726Z,5.69
2017-12-05T02:37:03.686Z,5.82
2017-12-05T02:38:03.648Z,5.76
2017-12-05T02:39:03.606Z,5.76
2017-12-05T02:40:03.570Z,5.76
2017-12-05T02:41:03.521Z,5.80
2017-12-05T02:42:03.483Z,5.80
2017-12-05T02:43:03.438Z,5.82
2017-12-05T02:44:03.396Z,5.82
2017-12-05T02:45:03.362Z,5.84
2017-12-05T02:46:03.315Z,5.84
2017-12-05T02:47:03.276Z,5.73
2017-12-05T02:48:03.242Z,5.82
2017-12-05T02:49:03.193Z,5.82
2017-12-05T02:50:03.150Z,5.82
2017-12-05T02:51:03.114Z,5.80
2017-12-05T02:52:03.071Z,5.79
2017-12-05T02:53:03.040Z,5.75
2017-12-05T02:54:02.994Z,5.84
2017-12-05T02:55:02.960Z,5.87
2017-12-05T02:56:02.906Z,5.87
2017-12-05T02:57:02.868Z,5.87
2017-12-05T02:58:02.824Z,5.87
2017-12-05T02:59:02.782Z,5.87
2017-12-05T03:00:02.739Z,5.83
2017-12-05T03:01:02.701Z,5.84
2017-12-05T03:02:02.660Z,5.82
2017-12-05T03:03:02.628Z,5.84
2017-12-05T03:04:02.576Z,5.89
2017-12-05T03:05:02.539Z,5.79
2017-12-05T03:06:02.498Z,5.83
2017-12-05T03:07:02.457Z,5.82
2017-12-05T03:08:02.417Z,5.87
2017-12-05T03:09:02.379Z,5.86
2017-12-05T03:10:02.336Z,5.87
2017-12-05T03:11:02.308Z,5.94
2017-12-05T03:12:02.254Z,5.98
2017-12-05T03:13:02.213Z,5.97
2017-12-05T03:14:02.190Z,5.87
2017-12-05T03:15:02.138Z,5.87
2017-12-05T03:16:02.098Z,5.91
2017-12-05T03:17:02.049Z,5.98
2017-12-05T03:18:02.010Z,6.04
2017-12-05T03:19:01.967Z,5.99
2017-12-05T03:20:01.925Z,6.04
2017-12-05T03:21:01.893Z,6.05
2017-12-05T03:22:01.845Z,6.05
2017-12-05T03:23:01.820Z,5.97
2017-12-05T03:24:01.767Z,5.98
2017-12-05T03:25:01.730Z,5.97
2017-12-05T03:26:01.688Z,6.04
2017-12-05T03:27:01.659Z,6.05
2017-12-05T03:28:01.598Z,6.07
2017-12-05T03:29:01.556Z,6.07
2017-12-05T03:30:01.605Z,6.02
2017-12-05T03:31:01.481Z,5.99
2017-12-05T03:32:01.446Z,6.01
2017-12-05T03:33:01.398Z,6.08
2017-12-05T03:34:01.353Z,6.07
2017-12-05T03:35:01.319Z,6.01
2017-12-05T03:36:01.273Z,6.05
2017-12-05T03:37:01.252Z,6.09
2017-12-05T03:38:01.194Z,6.07
2017-12-05T03:39:01.161Z,6.01
2017-12-05T03:40:01.114Z,6.05
2017-12-05T03:41:01.074Z,6.11
2017-12-05T03:42:01.030Z,6.08
2017-12-05T03:43:00.994Z,6.05
2017-12-05T03:44:00.951Z,6.02
2017-12-05T03:45:00.916Z,6.09
2017-12-05T03:46:00.877Z,6.09
2017-12-05T03:47:00.828Z,6.16
2017-12-05T03:48:00.788Z,6.07
2017-12-05T03:49:00.751Z,6.04
2017-12-05T03:50:00.705Z,6.07
2017-12-05T03:51:00.666Z,6.07
2017-12-05T03:52:00.628Z,6.12
2017-12-05T03:53:00.593Z,6.17
2017-12-05T03:54:00.542Z,6.19
2017-12-05T03:55:00.506Z,6.16
2017-12-05T03:56:00.464Z,6.17
2017-12-05T03:57:00.423Z,6.09
2017-12-05T03:58:00.381Z,6.19
2017-12-05T03:59:00.344Z,6.17
2017-12-05T04:00:00.306Z,6.19
2017-12-05T04:01:00.262Z,6.11
2017-12-05T04:02:00.218Z,6.12
2017-12-05T04:03:00.177Z,6.16
2017-12-05T04:04:00.153Z,6.09
2017-12-05T04:05:00.103Z,6.22
2017-12-05T04:06:00.060Z,6.22
2017-12-05T04:07:00.017Z,6.11
2017-12-05T04:08:00.594Z,6.14
2017-12-05T04:08:59.937Z,6.19
2017-12-05T04:09:59.895Z,6.19
2017-12-05T04:10:59.862Z,6.14
2017-12-05T04:11:59.816Z,6.14
2017-12-05T04:12:59.771Z,6.20
2017-12-05T04:14:01.593Z,6.19
2017-12-05T04:14:59.692Z,6.26
2017-12-05T04:15:59.652Z,6.17
2017-12-05T04:16:59.615Z,6.24
2017-12-05T04:17:59.571Z,6.24
2017-12-05T04:18:59.536Z,6.30
2017-12-05T04:19:59.512Z,6.36
2017-12-05T04:20:59.457Z,6.31
2017-12-05T04:21:59.408Z,6.28
2017-12-05T04:23:00.198Z,6.30
2017-12-05T04:23:59.331Z,6.38
2017-12-05T04:24:59.291Z,6.30
2017-12-05T04:25:59.257Z,6.31
2017-12-05T04:26:59.211Z,6.33
2017-12-05T04:27:59.176Z,6.33
2017-12-05T04:28:59.126Z,6.30
2017-12-05T04:29:59.085Z,6.31
2017-12-05T04:30:59.050Z,6.36
2017-12-05T04:31:59.019Z,6.42
2017-12-05T04:32:58.979Z,6.39
2017-12-05T04:33:59.588Z,6.44
2017-12-05T04:34:58.906Z,6.38
2017-12-05T04:35:58.845Z,6.38
2017-12-05T04:36:58.821Z,6.41
2017-12-05T04:37:58.773Z,6.38
2017-12-05T04:38:58.727Z,6.41
2017-12-05T04:39:58.689Z,6.49
2017-12-05T04:40:58.652Z,6.48
2017-12-05T04:41:58.602Z,6.39
2017-12-05T04:42:58.584Z,6.39
2017-12-05T04:43:58.528Z,6.49
2017-12-05T04:44:58.520Z,6.57
2017-12-05T04:45:58.449Z,6.52
2017-12-05T04:46:58.399Z,6.57
2017-12-05T04:47:58.368Z,6.57
2017-12-05T04:48:58.316Z,6.51
2017-12-05T04:50:00.097Z,6.49
2017-12-05T04:50:58.245Z,6.49
2017-12-05T04:51:58.206Z,6.57
2017-12-05T04:52:58.170Z,6.60
2017-12-05T04:53:58.219Z,6.69
2017-12-05T04:54:58.075Z,6.62
2017-12-05T04:55:58.054Z,6.70
2017-12-05T04:56:57.993Z,6.67
2017-12-05T04:57:57.965Z,6.74
2017-12-05T04:58:57.926Z,6.77
2017-12-05T04:59:57.886Z,6.78
2017-12-05T05:00:57.839Z,6.77
2017-12-05T05:01:57.802Z,6.84
2017-12-05T05:02:57.760Z,6.87
2017-12-05T05:03:57.730Z,6.88
2017-12-05T05:04:57.669Z,6.89
2017-12-05T05:05:57.636Z,6.92
2017-12-05T05:06:57.592Z,6.99
2017-12-05T05:07:57.545Z,7.02
2017-12-05T05:08:57.508Z,7.00
2017-12-05T05:09:57.465Z,7.02
2017-12-05T05:10:57.427Z,7.06
2017-12-05T05:11:57.385Z,7.07
2017-12-05T05:12:57.353Z,7.17
2017-12-05T05:13:57.301Z,7.18
2017-12-05T05:14:57.261Z,7.15
2017-12-05T05:15:57.219Z,7.24
2017-12-05T05:16:57.178Z,7.28
2017-12-05T05:17:57.140Z,7.33
2017-12-05T05:18:57.107Z,7.40
2017-12-05T05:19:57.057Z,7.38
2017-12-05T05:20:57.018Z,7.39
2017-12-05T05:21:56.980Z,7.42
2017-12-05T05:22:56.950Z,7.32
2017-12-05T05:23:56.896Z,7.36
2017-12-05T05:24:56.858Z,7.43
2017-12-05T05:25:56.818Z,7.45
2017-12-05T05:26:56.772Z,7.51
2017-12-05T05:27:56.759Z,7.50
2017-12-05T05:28:56.695Z,7.48
2017-12-05T05:29:56.656Z,7.60
2017-12-05T05:30:56.616Z,7.67
2017-12-05T05:31:56.573Z,7.61
2017-12-05T05:32:56.531Z,7.57
2017-12-05T05:33:56.492Z,7.60
2017-12-05T05:34:56.451Z,7.72
2017-12-05T05:35:56.413Z,7.66
2017-12-05T05:36:56.371Z,7.69
2017-12-05T05:37:56.331Z,7.77
2017-12-05T05:38:56.301Z,7.63
2017-12-05T05:39:56.250Z,7.70
2017-12-05T05:40:56.216Z,7.70
2017-12-05T05:41:56.169Z,7.67
2017-12-05T05:42:56.130Z,7.67
2017-12-05T05:43:56.089Z,7.67
2017-12-05T05:44:56.050Z,7.75
2017-12-05T05:45:56.008Z,7.83
2017-12-05T05:46:55.975Z,7.85
2017-12-05T05:47:55.930Z,7.82
2017-12-05T05:48:55.886Z,7.85
2017-12-05T05:49:55.858Z,7.82
2017-12-05T05:50:55.814Z,7.80
2017-12-05T05:51:55.771Z,8.00
2017-12-05T05:52:57.606Z,7.83
2017-12-05T05:53:55.696Z,7.87
2017-12-05T05:54:55.646Z,7.87
2017-12-05T05:55:55.606Z,7.93
2017-12-05T05:56:55.592Z,7.82
2017-12-05T05:57:55.530Z,7.87
2017-12-05T05:58:55.489Z,7.85
2017-12-05T05:59:55.448Z,7.83
2017-12-05T06:00:55.423Z,7.98
2017-12-05T06:01:55.367Z,7.97
2017-12-05T06:02:55.328Z,7.94
2017-12-05T06:03:55.287Z,7.91
2017-12-05T06:04:55.246Z,7.95
2017-12-05T06:05:55.205Z,7.93
2017-12-05T06:06:55.172Z,7.93
2017-12-05T06:07:55.126Z,7.94
2017-12-05T06:08:55.085Z,7.98
2017-12-05T06:09:55.049Z,7.98
2017-12-05T06:10:55.005Z,8.00
2017-12-05T06:11:54.965Z,8.06
2017-12-05T06:12:54.930Z,8.01
2017-12-05T06:13:54.885Z,8.03
2017-12-05T06:14:54.856Z,8.01
2017-12-05T06:15:54.807Z,7.97
2017-12-05T06:16:54.775Z,8.09
2017-12-05T06:17:54.724Z,8.09
2017-12-05T06:18:54.684Z,8.06
2017-12-05T06:19:54.644Z,8.05
2017-12-05T06:20:54.607Z,8.09
2017-12-05T06:21:54.575Z,8.12
2017-12-05T06:22:55.115Z,8.05
2017-12-05T06:23:54.487Z,8.08
2017-12-05T06:24:54.450Z,8.06
2017-12-05T06:25:54.419Z,8.13
2017-12-05T06:26:54.372Z,8.13
2017-12-05T06:27:54.327Z,8.09
2017-12-05T06:28:55.121Z,8.12
2017-12-05T06:29:54.244Z,8.08
2017-12-05T06:30:54.202Z,8.09
2017-12-05T06:31:54.207Z,8.10
2017-12-05T06:32:54.123Z,8.08
2017-12-05T06:33:54.086Z,8.09
2017-12-05T06:34:54.045Z,8.09
2017-12-05T06:35:54.013Z,8.19
2017-12-05T06:36:53.963Z,8.23
2017-12-05T06:37:53.921Z,8.15
2017-12-05T06:38:53.892Z,8.16
2017-12-05T06:39:53.851Z,8.18
2017-12-05T06:40:53.806Z,8.16
2017-12-05T06:41:53.764Z,8.24
2017-12-05T06:42:53.726Z,8.19
2017-12-05T06:43:53.680Z,8.20
2017-12-05T06:44:53.648Z,8.20
2017-12-05T06:45:53.599Z,8.18
2017-12-05T06:46:53.566Z,8.24
2017-12-05T06:47:53.542Z,8.23
2017-12-05T06:48:53.503Z,8.23
2017-12-05T06:49:58.124Z,8.20
2017-12-05T06:50:53.402Z,8.26
2017-12-05T06:51:53.364Z,8.24
2017-12-05T06:52:53.330Z,8.24
2017-12-05T06:53:53.278Z,8.23
2017-12-05T06:54:53.245Z,8.24
2017-12-05T06:56:04.123Z,8.26
2017-12-05T06:56:53.164Z,8.24
2017-12-05T06:57:53.129Z,8.23
2017-12-05T06:58:53.080Z,8.27
2017-12-05T06:59:53.065Z,8.26
2017-12-05T07:00:53.006Z,8.27
2017-12-05T07:01:52.961Z,8.30
2017-12-05T07:02:52.940Z,8.26
2017-12-05T07:03:52.887Z,8.37
2017-12-05T07:04:52.849Z,8.20
2017-12-05T07:05:52.799Z,8.28
2017-12-05T07:06:52.769Z,8.24
2017-12-05T07:07:52.748Z,8.31
2017-12-05T07:08:52.689Z,8.30
2017-12-05T07:09:52.639Z,8.33
2017-12-05T07:10:52.677Z,8.31
2017-12-05T07:11:52.590Z,8.33
2017-12-05T07:12:52.523Z,8.37
2017-12-05T07:13:52.499Z,8.44
2017-12-05T07:14:52.439Z,8.31
2017-12-05T07:15:59.129Z,8.34
2017-12-05T07:16:52.389Z,8.38
2017-12-05T07:17:52.377Z,8.31
2017-12-05T07:18:52.307Z,8.36
2017-12-05T07:19:52.245Z,8.49
2017-12-05T07:20:52.257Z,8.31
2017-12-05T07:21:52.177Z,8.36
2017-12-05T07:22:52.133Z,8.44
2017-12-05T07:23:52.094Z,8.37
2017-12-05T07:24:52.046Z,8.42
2017-12-05T07:25:52.001Z,8.41
2017-12-05T07:26:51.979Z,8.42
2017-12-05T07:27:51.925Z,8.46
2017-12-05T07:28:51.883Z,8.46
2017-12-05T07:29:51.844Z,8.44
2017-12-05T07:30:51.802Z,8.44
2017-12-05T07:31:51.761Z,8.46
2017-12-05T07:32:51.726Z,8.45
2017-12-05T07:33:51.684Z,8.45
2017-12-05T07:34:51.685Z,8.44
2017-12-05T07:35:51.607Z,8.46
2017-12-05T07:36:51.566Z,8.52
2017-12-05T07:37:51.524Z,8.58
2017-12-05T07:38:51.486Z,8.71
2017-12-05T07:39:51.452Z,8.69
2017-12-05T07:40:51.402Z,8.70
2017-12-05T07:41:51.364Z,8.63
2017-12-05T07:42:51.327Z,8.63
2017-12-05T07:43:51.286Z,8.60
2017-12-05T07:44:51.244Z,8.64
2017-12-05T07:45:51.206Z,8.63
2017-12-05T07:46:51.166Z,8.63
2017-12-05T07:47:51.126Z,8.60
2017-12-05T07:48:51.086Z,8.53
2017-12-05T07:49:51.055Z,8.55
2017-12-05T07:50:51.006Z,8.49
2017-12-05T07:51:50.976Z,8.51
2017-12-05T07:52:50.925Z,8.51
2017-12-05T07:53:50.885Z,8.51
2017-12-05T07:54:50.847Z,8.48
2017-12-05T07:55:50.821Z,8.48
2017-12-05T07:56:50.770Z,8.55
2017-12-05T07:57:50.727Z,8.48
2017-12-05T07:58:50.692Z,8.44
2017-12-05T07:59:50.653Z,8.46
2017-12-05T08:00:50.618Z,8.51
2017-12-05T08:01:50.572Z,8.52
2017-12-05T08:02:50.539Z,8.48
2017-12-05T08:03:50.511Z,8.48
2017-12-05T08:04:50.450Z,8.48
2017-12-05T08:05:50.419Z,8.53
2017-12-05T08:06:50.376Z,8.44
2017-12-05T08:07:50.330Z,8.52
2017-12-05T08:08:50.300Z,8.46
2017-12-05T08:09:50.250Z,8.45
2017-12-05T08:10:50.231Z,8.52
2017-12-05T08:11:50.181Z,8.46
2017-12-05T08:12:50.139Z,8.45
2017-12-05T08:13:50.097Z,8.42
2017-12-05T08:14:50.057Z,8.42
2017-12-05T08:15:50.014Z,8.44
2017-12-05T08:16:49.975Z,8.41
2017-12-05T08:17:49.934Z,8.37
2017-12-05T08:18:49.897Z,8.46
2017-12-05T08:19:49.859Z,8.44
2017-12-05T08:20:49.816Z,8.33
2017-12-05T08:21:49.783Z,8.37
2017-12-05T08:22:49.742Z,8.34
2017-12-05T08:23:49.704Z,8.31
2017-12-05T08:24:49.660Z,8.34
2017-12-05T08:25:49.638Z,8.49
2017-12-05T08:26:49.583Z,8.45
2017-12-05T08:27:50.131Z,8.37
2017-12-05T08:28:49.510Z,8.45
2017-12-05T08:29:49.462Z,8.44
2017-12-05T08:30:49.433Z,8.46
2017-12-05T08:31:49.380Z,8.49
2017-12-05T08:32:56.126Z,8.52
2017-12-05T08:33:49.312Z,8.56
2017-12-05T08:34:50.130Z,8.51
2017-12-05T08:35:49.223Z,8.52
2017-12-05T08:36:49.210Z,8.60
2017-12-05T08:37:51.127Z,8.63
2017-12-05T08:38:49.636Z,8.58
2017-12-05T08:39:49.069Z,8.63
2017-12-05T08:40:49.028Z,8.66
2017-12-05T08:41:49.014Z,8.60
2017-12-05T08:42:50.635Z,8.58
2017-12-05T08:43:49.630Z,8.63
2017-12-05T08:44:48.866Z,8.63
2017-12-05T08:45:48.830Z,8.58
2017-12-05T08:46:48.792Z,8.60
2017-12-05T08:47:53.627Z,8.56
2017-12-05T08:48:50.649Z,8.56
2017-12-05T08:49:48.671Z,8.67
2017-12-05T08:50:48.631Z,8.63
2017-12-05T08:51:49.127Z,8.60
2017-12-05T08:52:48.552Z,8.61
2017-12-05T08:53:48.513Z,8.52
2017-12-05T08:54:48.473Z,8.60
2017-12-05T08:55:48.433Z,8.60
2017-12-05T08:56:48.401Z,8.53
2017-12-05T08:57:48.355Z,8.60
2017-12-05T08:58:49.133Z,8.66
2017-12-05T08:59:48.274Z,8.60
2017-12-05T09:00:48.241Z,8.60
2017-12-05T09:01:48.198Z,8.69
2017-12-05T09:02:48.156Z,8.63
2017-12-05T09:03:49.637Z,8.70
2017-12-05T09:04:49.657Z,8.64
2017-12-05T09:05:49.651Z,8.71
2017-12-05T09:06:47.997Z,8.73
2017-12-05T09:07:48.634Z,8.74
2017-12-05T09:08:47.919Z,8.70
2017-12-05T09:09:49.633Z,8.74
2017-12-05T09:10:47.840Z,8.71
2017-12-05T09:11:47.817Z,8.71
2017-12-05T09:12:47.760Z,8.82
2017-12-05T09:13:47.719Z,8.76
2017-12-05T09:14:47.687Z,8.88
2017-12-05T09:15:47.658Z,8.82
2017-12-05T09:16:47.603Z,8.78
2017-12-05T09:17:47.573Z,8.84
2017-12-05T09:18:47.529Z,8.84
2017-12-05T09:19:47.487Z,8.84
2017-12-05T09:20:47.444Z,8.82
2017-12-05T09:21:47.411Z,8.84
2017-12-05T09:22:47.379Z,8.82
2017-12-05T09:23:48.154Z,8.78
2017-12-05T09:24:47.298Z,8.78
2017-12-05T09:25:47.252Z,8.84
2017-12-05T09:26:47.213Z,8.74
2017-12-05T09:27:47.219Z,8.73
2017-12-05T09:28:47.139Z,8.76
2017-12-05T09:29:47.102Z,8.73
2017-12-05T09:30:47.052Z,8.71
2017-12-05T09:31:47.038Z,8.76
2017-12-05T09:32:46.983Z,8.78
2017-12-05T09:33:46.958Z,8.71
2017-12-05T09:34:46.904Z,8.74
2017-12-05T09:35:47.290Z,8.81
2017-12-05T09:36:46.826Z,8.78
2017-12-05T09:37:46.781Z,8.74
2017-12-05T09:38:46.742Z,8.74
2017-12-05T09:39:46.723Z,8.82
2017-12-05T09:40:46.666Z,8.81
2017-12-05T09:41:46.636Z,8.87
2017-12-05T09:42:46.600Z,8.99
2017-12-05T09:43:46.543Z,8.91
2017-12-05T09:44:46.510Z,8.85
2017-12-05T09:45:46.476Z,8.87
2017-12-05T09:46:46.466Z,8.82
2017-12-05T09:47:46.466Z,8.85
2017-12-05T09:48:46.349Z,8.81
2017-12-05T09:49:46.336Z,8.78
2017-12-05T09:50:46.269Z,8.87
2017-12-05T09:51:46.252Z,8.82
2017-12-05T09:52:46.216Z,8.79
2017-12-05T09:53:46.151Z,8.74
2017-12-05T09:54:46.126Z,8.79
2017-12-05T09:55:46.092Z,8.81
2017-12-05T09:56:46.429Z,8.76
2017-12-05T09:57:56.645Z,8.84
2017-12-05T09:58:45.961Z,8.87
2017-12-05T09:59:45.967Z,8.78
2017-12-05T10:00:45.930Z,8.87
2017-12-05T10:01:45.874Z,8.81
2017-12-05T10:02:45.794Z,8.88
2017-12-05T10:03:45.767Z,8.87
2017-12-05T10:04:45.720Z,8.92
2017-12-05T10:05:45.675Z,8.99
2017-12-05T10:06:45.654Z,9.02
2017-12-05T10:07:45.602Z,8.99
2017-12-05T10:08:45.570Z,8.92
2017-12-05T10:09:45.525Z,8.97
2017-12-05T10:10:45.486Z,8.95
2017-12-05T10:11:45.441Z,9.10
2017-12-05T10:12:45.410Z,9.04
2017-12-05T10:13:45.362Z,9.03
2017-12-05T10:14:45.326Z,9.02
2017-12-05T10:15:45.299Z,8.92
2017-12-05T10:16:45.257Z,8.92
2017-12-05T10:17:46.144Z,8.95
2017-12-05T10:18:45.162Z,8.95
2017-12-05T10:19:45.126Z,8.94
2017-12-05T10:20:45.091Z,8.89
2017-12-05T10:21:45.081Z,9.06
2017-12-05T10:22:45.022Z,9.02
2017-12-05T10:23:44.981Z,8.99
2017-12-05T10:24:45.682Z,8.94
2017-12-05T10:25:44.901Z,9.04
2017-12-05T10:26:44.853Z,8.97
2017-12-05T10:27:44.823Z,8.78
2017-12-05T10:28:44.773Z,8.82
2017-12-05T10:29:44.736Z,8.79
2017-12-05T10:30:44.701Z,8.76
2017-12-05T10:31:44.694Z,8.71
2017-12-05T10:32:44.630Z,8.81
2017-12-05T10:33:44.584Z,8.74
2017-12-05T10:34:44.539Z,8.67
2017-12-05T10:35:44.520Z,8.69
2017-12-05T10:36:44.465Z,8.67
2017-12-05T10:37:44.424Z,8.63
2017-12-05T10:38:44.389Z,8.64
2017-12-05T10:39:44.346Z,8.64
2017-12-05T10:40:44.305Z,8.69
2017-12-05T10:41:44.269Z,8.79
2017-12-05T10:42:44.232Z,8.82
2017-12-05T10:43:44.182Z,8.79
2017-12-05T10:44:44.146Z,8.76
2017-12-05T10:45:44.107Z,8.84
2017-12-05T10:46:44.071Z,8.81
2017-12-05T10:47:44.029Z,8.88
2017-12-05T10:48:43.993Z,8.85
2017-12-05T10:49:43.955Z,8.74
2017-12-05T10:50:43.912Z,8.89
2017-12-05T10:51:43.869Z,8.87
2017-12-05T10:52:43.828Z,8.81
2017-12-05T10:53:43.792Z,8.76
2017-12-05T10:54:43.757Z,8.81
2017-12-05T10:55:43.718Z,8.89
2017-12-05T10:56:43.679Z,8.79
2017-12-05T10:57:43.643Z,8.84
2017-12-05T10:58:43.602Z,8.87
2017-12-05T10:59:43.556Z,8.89
2017-12-05T11:00:43.519Z,8.85
2017-12-05T11:01:43.485Z,8.92
2017-12-05T11:02:43.444Z,8.91
2017-12-05T11:03:43.520Z,8.81
2017-12-05T11:04:43.359Z,8.78
2017-12-05T11:05:43.321Z,8.76
2017-12-05T11:06:43.280Z,8.78
2017-12-05T11:07:43.243Z,8.82
2017-12-05T11:08:43.207Z,8.88
2017-12-05T11:09:43.162Z,8.89
2017-12-05T11:10:43.123Z,8.97
2017-12-05T11:11:43.086Z,8.95
2017-12-05T11:12:43.043Z,9.02
2017-12-05T11:13:43.004Z,9.02
2017-12-05T11:14:43.063Z,9.04
2017-12-05T11:15:42.929Z,8.97
2017-12-05T11:16:42.890Z,8.94
2017-12-05T11:17:42.871Z,8.87
2017-12-05T11:18:42.811Z,8.95
2017-12-05T11:19:42.776Z,8.88
2017-12-05T11:20:42.730Z,8.91
2017-12-05T11:21:42.694Z,8.85
2017-12-05T11:22:42.663Z,8.78
2017-12-05T11:23:42.619Z,8.78
2017-12-05T11:24:42.581Z,8.79
2017-12-05T11:25:44.177Z,8.88
2017-12-05T11:26:42.496Z,8.89
2017-12-05T11:27:42.470Z,8.88
2017-12-05T11:28:42.419Z,8.79
2017-12-05T11:29:42.399Z,8.79
2017-12-05T11:30:42.345Z,8.79
2017-12-05T11:31:42.303Z,8.78
2017-12-05T11:32:42.329Z,8.84
2017-12-05T11:33:42.221Z,8.74
2017-12-05T11:34:42.272Z,8.81
2017-12-05T11:35:42.141Z,8.81
2017-12-05T11:36:42.132Z,8.78
2017-12-05T11:37:42.076Z,8.79
2017-12-05T11:38:42.031Z,8.89
2017-12-05T11:39:42.048Z,8.85
2017-12-05T11:40:41.951Z,8.81
2017-12-05T11:41:41.920Z,8.81
2017-12-05T11:42:41.866Z,8.82
2017-12-05T11:43:41.832Z,8.73
2017-12-05T11:44:41.803Z,8.79
2017-12-05T11:45:41.761Z,8.81
2017-12-05T11:46:41.774Z,8.79
2017-12-05T11:47:41.676Z,8.84
2017-12-05T11:48:41.641Z,8.82
2017-12-05T11:49:41.609Z,8.81
2017-12-05T11:50:41.565Z,8.76
2017-12-05T11:51:41.521Z,8.71
2017-12-05T11:52:41.482Z,8.84
2017-12-05T11:53:41.447Z,8.67
2017-12-05T11:54:41.454Z,8.74
2017-12-05T11:55:41.357Z,8.74
2017-12-05T11:56:41.329Z,8.67
2017-12-05T11:57:41.464Z,8.63
2017-12-05T11:58:41.248Z,8.69
2017-12-05T11:59:41.247Z,8.67
2017-12-05T12:00:41.190Z,8.74
2017-12-05T12:01:41.145Z,8.71
2017-12-05T12:02:41.092Z,8.64
2017-12-05T12:03:41.050Z,8.74
2017-12-05T12:04:41.004Z,8.74
2017-12-05T12:05:40.980Z,8.73
2017-12-05T12:06:40.930Z,8.73
2017-12-05T12:07:40.890Z,8.73
2017-12-05T12:08:40.854Z,8.67
2017-12-05T12:09:40.817Z,8.63
2017-12-05T12:10:40.770Z,8.55
2017-12-05T12:11:40.877Z,8.63
2017-12-05T12:12:40.695Z,8.56
2017-12-05T12:13:40.661Z,8.63
2017-12-05T12:14:40.619Z,8.63
2017-12-05T12:15:40.648Z,8.58
2017-12-05T12:16:40.664Z,8.64
2017-12-05T12:17:40.498Z,8.64
2017-12-05T12:18:41.176Z,8.67
2017-12-05T12:19:40.417Z,8.63
2017-12-05T12:20:40.377Z,8.53
2017-12-05T12:21:40.450Z,8.66
2017-12-05T12:22:45.211Z,8.51
2017-12-05T12:23:40.270Z,8.52
2017-12-05T12:24:40.215Z,8.52
2017-12-05T12:25:40.178Z,8.45
2017-12-05T12:26:40.151Z,8.46
2017-12-05T12:27:40.674Z,8.52
2017-12-05T12:28:40.069Z,8.46
2017-12-05T12:29:40.039Z,8.44
2017-12-05T12:30:39.995Z,8.53
2017-12-05T12:31:40.680Z,8.45
2017-12-05T12:32:41.696Z,8.55
2017-12-05T12:33:40.694Z,8.48
2017-12-05T12:34:39.822Z,8.49
2017-12-05T12:35:39.782Z,8.49
2017-12-05T12:36:39.764Z,8.49
2017-12-05T12:37:39.700Z,8.45
2017-12-05T12:38:39.672Z,8.46
2017-12-05T12:39:39.630Z,8.51
2017-12-05T12:40:39.584Z,8.51
2017-12-05T12:41:40.185Z,8.51
2017-12-05T12:42:39.519Z,8.49
2017-12-05T12:43:39.474Z,8.52
2017-12-05T12:44:39.431Z,8.53
2017-12-05T12:45:39.389Z,8.46
2017-12-05T12:46:39.344Z,8.48
2017-12-05T12:47:39.311Z,8.49
2017-12-05T12:48:39.261Z,8.44
2017-12-05T12:49:39.223Z,8.44
2017-12-05T12:50:39.215Z,8.53
2017-12-05T12:51:39.150Z,8.46
2017-12-05T12:52:39.124Z,8.46
2017-12-05T12:53:39.066Z,8.46
2017-12-05T12:54:39.035Z,8.42
2017-12-05T12:55:38.991Z,8.64
2017-12-05T12:56:39.092Z,8.60
2017-12-05T12:57:38.911Z,8.55
2017-12-05T12:58:38.883Z,8.55
2017-12-05T12:59:38.833Z,8.64
2017-12-05T13:00:40.685Z,8.48
2017-12-05T13:01:38.748Z,8.52
2017-12-05T13:02:38.733Z,8.53
2017-12-05T13:03:38.679Z,8.55
2017-12-05T13:04:38.631Z,8.53
2017-12-05T13:05:38.650Z,8.55
2017-12-05T13:06:38.553Z,8.52
2017-12-05T13:07:38.559Z,8.58
2017-12-05T13:08:38.473Z,8.60
2017-12-05T13:09:38.459Z,8.51
2017-12-05T13:10:38.431Z,8.58
2017-12-05T13:11:38.380Z,8.45
2017-12-05T13:12:38.330Z,8.53
2017-12-05T13:13:38.277Z,8.53
2017-12-05T13:14:38.286Z,8.49
2017-12-05T13:15:38.203Z,8.42
2017-12-05T13:16:38.159Z,8.41
2017-12-05T13:17:38.119Z,8.34